Accueil
METAR-TAF:

METAR-TAF

Aéroports :

Aéroport Andorre

La Seu d'Urgell, Espagne

latitude: 42-20-29N, longitude: 001-24-17E, altitude: 802 m

Observation

Le bulletin a été fait il y a 2 heures et 14 minutes, à 16:00 UTC
Vent 12 kt de nord/nord-est, variant entre nord et est/nord-est
Température 15°C
Humidité 10%
Pression 1027 hPa
Visibilité 10 km ou plus
pas de nuages en-dessous de 1500 mètres et pas de cumulonimbus.

METAR: LESU 021600Z 03012KT 350V060 CAVOK 15/M16 Q1027

Heure: 19:14 (18:14 UTC)

Prévision

Le bulletin a été fait il y a 4 heures et 14 minutes, à 14:00 UTC
Prévision valable du 02 à 15 UTC au 03 à 15 UTC
Vent 3 kt de direction variable
Visibilité 10 km ou plus
pas de nuages en-dessous de 1500 mètres et pas de cumulonimbus.

TAF: LESU 021400Z 0215/0315 VRB03KT CAVOK TX19/0312Z TNM07/0307Z

Observations et prévisions météorologiques de plus de 4000 aéroports (messages METAR et TAF).

Les stations disponibles sont représentées par des disques jaunes et rouges sur la carte.

Passer la souris dessus pour voir le nom de la station.

Cliquer dessus pour voir les observations et prévisions météorologiques.

Pour changer de carte: cliquez sur les boutons verts avec une croix noire pour zoomer, sur le bouton vert avec un tiret pour effectuer un zoom arrière, ou sur les flèches vertes pour les cartes adjacentes.


METAR-TAF: